GCGM

La Gomera Airport

Alajero, La Gomera Island, Spain
METAR GCGM 240730Z 19003KT 160V250 9999 BKN040 18/11 Q1019 RMK R09/VRB01KT ARP/VRB02KT
Observed Flight Rules
May-24 @ 07:30 UTC (30 minutes ago) Visual Flight Rules
Wind Visibility Clouds
190° at 3 knots 10,000+ meters
  • Broken at 4,000' AGL
Temperatures Readings
Current 18°C / 64°F
Dewpoint 11°C / 52°F
Humidity 64%
Altimeter 30.09" Hg
Pressure 1019 hPa
Elevation 219
METAR GCGM 240730Z 19003KT 160V250 9999 BKN040 18/11 Q1019 RMK R09/VRB01KT ARP/VRB02KT
Observed Flight Rules
May-24 @ 07:30 UTC
(30 minutes ago)
VFR
Wind Visibility
190° at 3 knots 10,000+ meters
Clouds
  • Broken at 4,000' AGL
Temperature Dewpoint
18°C / 64°F 11°C / 52°F
Humidity Altimeter Pressure
64% 30.09" Hg 1019 hPa